Time;durP1;ratioP1;P1;durP2;ratioP2;P2;SDS_P1;SDS_P2;PMS_P1;PMS_P2;Temp;Humidity;BMP_temperature;BMP_pressure;BME280_temperature;BME280_humidity;BME280_pressure;Samples;Min_cycle;Max_cycle;Signal;HPM_P1;HPM_P2
2022/07/18 00:01:57;;;;;;;8.27;7.60;;;;;;;17.52;55.70;93552.50;5077091;28;20213;-71
2022/07/18 00:04:22;;;;;;;8.07;7.67;;;;;;;17.38;55.98;93541.16;5078685;28;20224;-69
2022/07/18 00:06:48;;;;;;;12.13;10.40;;;;;;;17.38;59.07;93557.81;5078291;28;20297;-70
2022/07/18 00:09:13;;;;;;;16.70;9.33;;;;;;;17.34;59.29;93556.81;5079895;28;20179;-71
2022/07/18 00:11:39;;;;;;;9.57;8.73;;;;;;;17.10;58.34;93543.09;5079831;28;20233;-69
2022/07/18 00:14:04;;;;;;;8.23;7.83;;;;;;;17.22;57.07;93542.56;5080520;28;20240;-70
2022/07/18 00:16:29;;;;;;;8.97;7.97;;;;;;;17.15;57.78;93544.84;5078194;28;20275;-70
2022/07/18 00:18:58;;;;;;;7.93;7.57;;;;;;;17.16;57.23;93546.38;5078121;28;20177;-70
2022/07/18 00:21:24;;;;;;;8.87;8.27;;;;;;;17.04;57.66;93536.31;5079203;28;20230;-70
2022/07/18 00:23:49;;;;;;;8.00;7.60;;;;;;;17.04;57.23;93549.50;5082634;28;20240;-70
2022/07/18 00:26:14;;;;;;;9.20;8.60;;;;;;;17.00;57.07;93553.81;5077802;28;20217;-69
2022/07/18 00:28:40;;;;;;;8.00;7.53;;;;;;;16.91;57.15;93552.97;5081862;28;20177;-70
2022/07/18 00:31:05;;;;;;;8.90;8.50;;;;;;;16.83;56.35;93550.22;5077952;28;20221;-69
2022/07/18 00:33:31;;;;;;;7.77;7.27;;;;;;;17.00;54.68;93540.63;5081374;28;20185;-70
2022/07/18 00:35:56;;;;;;;8.50;8.10;;;;;;;16.95;56.12;93537.34;5076546;28;20223;-70
2022/07/18 00:38:21;;;;;;;7.87;7.37;;;;;;;17.11;56.05;93539.34;5078447;28;20182;-69
2022/07/18 00:40:47;;;;;;;7.97;7.63;;;;;;;16.92;53.23;93541.31;5078872;28;20229;-70
2022/07/18 00:43:13;;;;;;;9.13;8.60;;;;;;;17.01;54.90;93542.19;5076653;28;20205;-70
2022/07/18 00:45:39;;;;;;;9.00;8.50;;;;;;;16.94;52.93;93541.03;5077441;28;20209;-70
2022/07/18 00:48:08;;;;;;;8.60;8.20;;;;;;;16.94;50.87;93539.19;5078214;28;20245;-70
2022/07/18 00:50:33;;;;;;;8.00;7.53;;;;;;;16.92;51.65;93538.69;5076934;28;20181;-69
2022/07/18 00:52:59;;;;;;;8.37;8.07;;;;;;;17.02;51.57;93543.78;5077621;28;20249;-68
2022/07/18 00:55:24;;;;;;;7.57;7.27;;;;;;;16.87;50.36;93536.13;5078087;28;20186;-71
2022/07/18 00:57:51;;;;;;;8.80;8.33;;;;;;;16.81;49.97;93531.28;5062008;28;20231;-70
2022/07/18 01:03:00;;;;;;;8.03;7.53;;;;;;;16.89;47.86;93536.63;5057241;28;20244;-69
2022/07/18 01:05:25;;;;;;;7.03;6.73;;;;;;;16.89;47.39;93543.75;5057474;28;20240;-71
2022/07/18 01:07:51;;;;;;;7.70;7.40;;;;;;;16.88;47.35;93524.53;5082209;28;20228;-69
2022/07/18 01:10:18;;;;;;;7.53;7.13;;;;;;;16.87;45.18;93544.06;5082396;28;20181;-69
2022/07/18 01:12:44;;;;;;;8.50;8.10;;;;;;;16.80;45.37;93535.75;5080019;28;20224;-70
2022/07/18 01:15:10;;;;;;;8.20;7.70;;;;;;;16.93;46.85;93548.19;5062490;28;20181;-70
2022/07/18 01:17:36;;;;;;;8.03;7.73;;;;;;;16.81;47.66;93542.59;5083484;28;20225;-70
2022/07/18 01:20:02;;;;;;;7.30;7.00;;;;;;;16.82;48.39;93549.44;5082371;28;20201;-68
2022/07/18 01:22:28;;;;;;;8.67;8.27;;;;;;;16.56;43.50;93529.88;5083389;28;20209;-69
2022/07/18 01:24:53;;;;;;;8.07;7.67;;;;;;;16.75;47.28;93549.03;5083278;28;20217;-69
2022/07/18 01:27:21;;;;;;;8.10;7.60;;;;;;;16.75;48.22;93542.97;5081707;28;20223;-70
2022/07/18 01:29:48;;;;;;;8.67;8.20;;;;;;;16.62;47.57;93538.50;5064233;28;20189;-70
2022/07/18 01:32:15;;;;;;;8.37;7.93;;;;;;;16.51;47.99;93535.28;5079475;28;20241;-71
2022/07/18 01:34:41;;;;;;;6.87;6.57;;;;;;;16.45;48.55;93540.94;5084529;28;20196;-69
2022/07/18 01:37:07;;;;;;;8.23;7.80;;;;;;;16.34;49.44;93545.56;5081930;28;20241;-69
2022/07/18 01:39:33;;;;;;;8.27;7.80;;;;;;;16.35;50.00;93544.50;5084067;28;20196;-69
2022/07/18 01:42:00;;;;;;;7.53;7.23;;;;;;;16.24;48.82;93532.56;5081474;28;20220;-70
2022/07/18 01:44:27;;;;;;;8.43;8.13;;;;;;;16.10;49.03;93523.84;5084792;28;20194;-70
2022/07/18 01:46:52;;;;;;;7.63;7.30;;;;;;;16.14;50.10;93526.69;5080915;28;20228;-69
2022/07/18 01:49:18;;;;;;;7.87;7.47;;;;;;;16.17;44.62;93532.19;5081703;28;20257;-70
2022/07/18 01:51:47;;;;;;;8.50;8.17;;;;;;;16.17;48.49;93526.91;5080547;28;20223;-70
2022/07/18 01:54:13;;;;;;;8.47;8.07;;;;;;;16.19;48.50;93535.28;5075485;28;20189;-70
2022/07/18 01:56:39;;;;;;;8.00;7.40;;;;;;;16.23;47.40;93520.47;5081265;28;20289;-70
2022/07/18 01:59:04;;;;;;;7.53;7.03;;;;;;;16.12;46.49;93524.34;5081324;28;20182;-71
2022/07/18 02:01:29;;;;;;;8.00;7.40;;;;;;;16.09;46.90;93514.38;5079840;28;20252;-70
2022/07/18 02:03:55;;;;;;;8.33;7.83;;;;;;;16.07;48.74;93521.78;5083051;28;20220;-70
2022/07/18 02:06:20;;;;;;;7.40;7.00;;;;;;;15.95;44.30;93513.56;5081046;28;20240;-70
2022/07/18 02:08:46;;;;;;;7.43;7.13;;;;;;;16.05;47.36;93513.38;5080218;28;20204;-70
2022/07/18 02:11:11;;;;;;;7.80;7.40;;;;;;;16.07;47.06;93513.88;5079952;28;20231;-70
2022/07/18 02:13:37;;;;;;;7.50;7.03;;;;;;;15.91;48.00;93525.75;5079868;28;20196;-70
2022/07/18 02:16:03;;;;;;;8.43;7.73;;;;;;;15.86;48.10;93526.59;5078547;28;20248;-69
2022/07/18 02:18:32;;;;;;;8.20;7.90;;;;;;;15.79;49.05;93530.69;5084005;28;20186;-70
2022/07/18 02:20:58;;;;;;;8.47;7.97;;;;;;;15.69;48.93;93531.63;5079105;28;20228;-69
2022/07/18 02:23:23;;;;;;;8.03;7.50;;;;;;;15.61;47.06;93534.13;5082007;28;20243;-70
2022/07/18 02:25:48;;;;;;;7.47;7.17;;;;;;;15.65;49.42;93533.28;5079019;28;20229;-70
2022/07/18 02:28:14;;;;;;;7.87;7.57;;;;;;;15.60;45.55;93535.19;5083283;28;20196;-69
2022/07/18 02:30:39;;;;;;;7.63;7.23;;;;;;;15.64;44.13;93538.81;5083598;28;20234;-71
2022/07/18 02:33:05;;;;;;;8.67;7.97;;;;;;;15.65;44.05;93543.81;5081242;28;20186;-70
2022/07/18 02:35:31;;;;;;;9.40;8.50;;;;;;;15.63;45.25;93534.59;5081919;28;20185;-70
2022/07/18 02:37:56;;;;;;;8.43;7.87;;;;;;;15.63;45.09;93539.88;5063837;28;20200;-70
2022/07/18 02:40:21;;;;;;;7.37;6.97;;;;;;;15.55;45.29;93551.03;5079265;28;20248;-70
2022/07/18 02:42:47;;;;;;;7.50;7.17;;;;;;;15.48;46.47;93540.09;5081907;28;20229;-70
2022/07/18 02:45:13;;;;;;;7.07;6.77;;;;;;;15.58;44.96;93545.25;5079898;28;20204;-70
2022/07/18 02:47:38;;;;;;;8.13;7.73;;;;;;;15.51;44.92;93560.59;5079754;28;20229;-70
2022/07/18 02:50:04;;;;;;;7.40;7.10;;;;;;;15.43;44.92;93555.97;5079544;28;20182;-70
2022/07/18 02:52:30;;;;;;;8.07;7.67;;;;;;;15.29;45.06;93553.22;5080075;28;20824;-70
2022/07/18 02:54:56;;;;;;;8.20;7.80;;;;;;;15.32;44.39;93572.91;5080597;28;20857;-69
2022/07/18 02:57:22;;;;;;;7.80;7.50;;;;;;;15.42;44.72;93573.63;5081585;28;20228;-70
2022/07/18 02:59:47;;;;;;;8.33;7.93;;;;;;;15.40;44.89;93559.97;5076696;28;20191;-70
2022/07/18 03:02:13;;;;;;;8.83;8.43;;;;;;;15.23;44.57;93566.72;5079161;28;20237;-70
2022/07/18 03:04:38;;;;;;;8.57;8.10;;;;;;;15.25;44.45;93565.38;5079345;28;20215;-70
2022/07/18 03:07:04;;;;;;;7.30;7.00;;;;;;;15.31;44.99;93550.31;5081392;28;20228;-69
2022/07/18 03:09:30;;;;;;;6.87;6.63;;;;;;;15.32;44.60;93559.75;5079663;28;20197;-70
2022/07/18 03:11:56;;;;;;;7.97;7.67;;;;;;;15.30;44.14;93567.19;5082813;28;20232;-69
2022/07/18 03:14:22;;;;;;;7.37;7.07;;;;;;;15.42;43.50;93562.31;5078897;28;20189;-70
2022/07/18 03:16:47;;;;;;;7.43;6.93;;;;;;;15.39;43.42;93560.25;5080421;28;20224;-70
2022/07/18 03:19:13;;;;;;;7.13;6.70;;;;;;;15.45;43.25;93567.00;5080013;28;20215;-69
2022/07/18 03:21:38;;;;;;;8.43;8.03;;;;;;;15.84;45.04;93560.34;5080242;28;20280;-70
2022/07/18 03:24:04;;;;;;;9.60;7.53;;;;;;;16.78;42.78;93572.19;5080518;28;20256;-69
2022/07/18 03:26:29;;;;;;;8.07;7.67;;;;;;;17.13;40.89;93568.09;5078235;28;20240;-70
2022/07/18 03:28:54;;;;;;;7.43;6.87;;;;;;;17.36;41.13;93567.88;5078793;28;20189;-70
2022/07/18 03:31:20;;;;;;;8.03;7.33;;;;;;;17.44;39.47;93545.28;5079103;28;20239;-70
2022/07/18 03:33:45;;;;;;;7.37;7.07;;;;;;;17.41;41.14;93561.69;5081495;28;20199;-69
2022/07/18 03:36:11;;;;;;;7.30;7.00;;;;;;;18.04;39.35;93569.56;5079632;28;20255;-70
2022/07/18 03:38:36;;;;;;;8.47;7.97;;;;;;;17.80;41.35;93564.56;5079438;28;20181;-69
2022/07/18 03:41:03;;;;;;;6.93;6.50;;;;;;;18.37;40.61;93562.91;5078015;28;20229;-72
2022/07/18 03:43:29;;;;;;;7.10;6.80;;;;;;;18.65;39.85;93569.63;5077038;28;20176;-70
2022/07/18 03:45:54;;;;;;;6.97;6.67;;;;;;;18.02;41.86;93558.50;5079516;28;20250;-71
2022/07/18 03:48:20;;;;;;;7.17;6.87;;;;;;;18.02;41.84;93561.94;5084011;28;20188;-70
2022/07/18 03:50:45;;;;;;;7.73;7.43;;;;;;;17.44;43.44;93530.25;5080335;28;20242;-70
2022/07/18 03:53:11;;;;;;;7.47;7.17;;;;;;;18.04;43.43;93572.19;5079455;28;20179;-70
2022/07/18 03:55:36;;;;;;;6.73;6.43;;;;;;;18.44;43.36;93568.59;5076601;28;20174;-71
2022/07/18 03:58:02;;;;;;;7.90;7.20;;;;;;;18.67;42.66;93578.81;5077866;28;20700;-70
2022/07/18 04:00:27;;;;;;;7.37;7.07;;;;;;;18.32;43.70;93577.03;5079706;28;20178;-70
2022/07/18 04:02:53;;;;;;;7.13;6.73;;;;;;;18.01;44.80;93575.44;5081921;28;20231;-70
2022/07/18 04:05:18;;;;;;;7.40;7.10;;;;;;;18.25;45.74;93563.47;5077154;28;20237;-70
2022/07/18 04:07:44;;;;;;;8.03;7.50;;;;;;;18.86;45.07;93581.25;5061169;28;20221;-69
2022/07/18 04:10:11;;;;;;;7.93;7.33;;;;;;;18.84;45.60;93578.13;5078628;28;20225;-70
2022/07/18 04:12:54;;;;;;;7.77;7.37;;;;;;;18.20;47.65;93578.66;5080642;28;21087;-70
2022/07/18 04:15:21;;;;;;;7.77;7.47;;;;;;;17.96;48.92;93578.19;5079932;28;20213;-69
2022/07/18 04:17:47;;;;;;;7.70;7.20;;;;;;;18.22;45.88;93584.44;5078955;28;20250;-70
2022/07/18 04:20:13;;;;;;;7.50;7.20;;;;;;;18.07;45.62;93580.28;5077821;28;20172;-70
2022/07/18 04:22:54;;;;;;;8.37;7.97;;;;;;;17.67;43.82;93593.63;5061190;28;20274;-70
2022/07/18 04:25:22;;;;;;;8.33;7.23;;;;;;;17.73;43.89;93585.31;5078905;28;20197;-70
2022/07/18 04:27:48;;;;;;;7.47;7.00;;;;;;;18.37;43.39;93574.28;5078424;28;20275;-69
2022/07/18 04:30:16;;;;;;;7.73;7.33;;;;;;;18.70;40.65;93566.84;5076355;28;20162;-70
2022/07/18 04:32:42;;;;;;;7.80;7.37;;;;;;;19.01;42.81;93583.47;5077070;28;20244;-70
2022/07/18 04:35:08;;;;;;;7.57;7.17;;;;;;;18.72;41.38;93577.91;5078077;28;20192;-70
2022/07/18 04:37:35;;;;;;;7.60;7.10;;;;;;;19.00;40.22;93571.34;5080629;28;20286;-70
2022/07/18 04:40:01;;;;;;;7.33;6.93;;;;;;;18.91;41.24;93575.81;5075948;28;20255;-70
2022/07/18 04:42:27;;;;;;;6.93;6.63;;;;;;;18.78;41.40;93579.34;5078012;28;20201;-69
2022/07/18 04:44:52;;;;;;;8.37;7.87;;;;;;;18.81;40.18;93568.13;5076246;28;20202;-70
2022/07/18 04:47:18;;;;;;;8.43;8.03;;;;;;;18.54;40.01;93568.31;5077089;28;20238;-70
2022/07/18 04:49:44;;;;;;;8.43;8.00;;;;;;;18.84;39.80;93572.81;5076563;28;20175;-69
2022/07/18 04:52:09;;;;;;;7.60;7.30;;;;;;;18.89;42.30;93573.47;5077638;28;20222;-70
2022/07/18 04:54:34;;;;;;;7.20;6.90;;;;;;;19.18;40.16;93570.28;5081726;28;20174;-69
2022/07/18 04:57:00;;;;;;;10.37;7.37;;;;;;;19.22;39.50;93570.47;5061573;28;20222;-70
2022/07/18 04:59:25;;;;;;;6.50;6.20;;;;;;;19.23;40.47;93564.84;5078596;28;20180;-68
2022/07/18 05:01:51;;;;;;;7.67;7.27;;;;;;;19.39;38.18;93565.22;5074917;28;20230;-72
2022/07/18 05:04:17;;;;;;;7.73;7.43;;;;;;;19.39;37.14;93568.66;5079180;28;20218;-70
2022/07/18 05:06:42;;;;;;;7.47;7.07;;;;;;;19.46;37.64;93568.19;5076886;28;20223;-70
2022/07/18 05:09:08;;;;;;;8.10;7.70;;;;;;;19.78;36.35;93576.50;5076776;28;20243;-69
2022/07/18 05:11:33;;;;;;;8.03;7.43;;;;;;;19.71;34.18;93564.78;5076575;28;20230;-71
2022/07/18 05:13:58;;;;;;;6.60;6.40;;;;;;;19.91;33.84;93570.25;5078558;28;20203;-70
2022/07/18 05:16:24;;;;;;;6.83;6.43;;;;;;;19.90;33.97;93568.72;5075879;28;20228;-70
2022/07/18 05:18:49;;;;;;;7.27;6.97;;;;;;;19.79;34.00;93578.06;5078444;28;20185;-70
2022/07/18 05:21:14;;;;;;;7.17;6.80;;;;;;;19.75;34.47;93573.69;5076693;28;20332;-70
2022/07/18 05:23:40;;;;;;;7.10;6.70;;;;;;;19.52;34.52;93554.50;5077329;28;20184;-70
2022/07/18 05:26:05;;;;;;;7.10;6.73;;;;;;;20.02;33.19;93579.47;5078308;28;20278;-70
2022/07/18 05:28:31;;;;;;;6.38;6.13;;;;;;;19.72;33.74;93567.13;5079929;28;20182;-70
2022/07/18 05:30:56;;;;;;;7.20;6.80;;;;;;;20.01;33.04;93575.28;5078955;28;20254;-71
2022/07/18 05:33:22;;;;;;;7.47;7.00;;;;;;;20.45;32.81;93568.84;5078246;28;20213;-70
2022/07/18 05:35:47;;;;;;;7.75;7.40;;;;;;;21.25;31.33;93583.88;5078382;28;20224;-70
2022/07/18 05:38:13;;;;;;;7.13;6.82;;;;;;;21.90;29.79;93584.91;5079752;28;20185;-70
2022/07/18 05:40:38;;;;;;;6.80;6.50;;;;;;;21.69;29.83;93584.13;5079154;28;20188;-70
2022/07/18 05:43:03;;;;;;;6.20;5.90;;;;;;;23.86;27.50;93591.91;5078307;28;20200;-70
2022/07/18 05:45:29;;;;;;;6.40;6.20;;;;;;;26.77;23.94;93596.50;5078672;28;20265;-70
2022/07/18 05:47:55;;;;;;;7.00;6.63;;;;;;;23.97;26.00;93595.69;5082470;28;20223;-70
2022/07/18 05:50:21;;;;;;;7.30;6.55;;;;;;;24.59;26.77;93591.34;5076689;28;20212;-71
2022/07/18 05:52:47;;;;;;;7.10;6.43;;;;;;;27.58;23.79;93600.59;5079905;28;20294;-70
2022/07/18 05:55:13;;;;;;;6.32;6.00;;;;;;;31.61;19.45;93607.88;5082130;28;20185;-69
2022/07/18 05:57:38;;;;;;;6.30;5.90;;;;;;;32.51;18.87;93612.44;5082469;28;20225;-71
2022/07/18 06:00:06;;;;;;;5.85;5.35;;;;;;;36.39;14.93;93621.69;5079204;28;20193;-70
2022/07/18 06:02:32;;;;;;;5.63;5.15;;;;;;;36.53;15.04;93634.28;5080459;28;20240;-71
2022/07/18 06:04:58;;;;;;;7.57;5.85;;;;;;;37.51;14.20;93639.72;5083689;28;20207;-71
2022/07/18 06:07:23;;;;;;;6.35;5.97;;;;;;;34.76;16.26;93640.69;5079669;28;20232;-71
2022/07/18 06:09:48;;;;;;;6.53;6.13;;;;;;;36.94;14.48;93642.84;5080035;28;20173;-71
2022/07/18 06:12:15;;;;;;;6.07;5.57;;;;;;;37.14;13.79;93635.41;5081943;28;20233;-70
2022/07/18 06:14:40;;;;;;;5.40;4.88;;;;;;;35.49;14.75;93636.31;5080463;28;20180;-70
2022/07/18 06:17:06;;;;;;;6.20;5.72;;;;;;;34.89;14.42;93598.31;5080367;28;20225;-71
2022/07/18 06:19:31;;;;;;;5.20;4.90;;;;;;;37.26;13.66;93629.38;5080399;28;20212;-71
2022/07/18 06:21:57;;;;;;;5.53;5.25;;;;;;;37.27;13.40;93635.56;5080891;28;20232;-71
2022/07/18 06:24:23;;;;;;;5.30;5.00;;;;;;;36.95;13.27;93631.53;5080764;28;20184;-71
2022/07/18 06:26:49;;;;;;;5.45;5.00;;;;;;;38.26;13.07;93632.91;5078388;28;20244;-71
2022/07/18 06:29:15;;;;;;;6.47;5.35;;;;;;;34.68;14.85;93614.81;5081098;28;20190;-70
2022/07/18 06:31:40;;;;;;;5.18;4.75;;;;;;;37.30;14.07;93634.72;5079849;28;20247;-71
2022/07/18 06:34:06;;;;;;;5.25;4.85;;;;;;;36.62;13.90;93618.16;5080761;28;20235;-72
2022/07/18 06:36:31;;;;;;;5.65;5.28;;;;;;;37.23;13.48;93622.03;5079238;28;20227;-71
2022/07/18 06:38:57;;;;;;;10.63;5.20;;;;;;;39.81;11.33;93632.06;5081784;28;20219;-71
2022/07/18 06:41:22;;;;;;;5.20;4.90;;;;;;;39.54;12.02;93629.00;5079555;28;20224;-71
2022/07/18 06:43:47;;;;;;;5.45;5.20;;;;;;;39.47;12.00;93634.69;5084666;28;20197;-70
2022/07/18 06:46:13;;;;;;;5.50;5.20;;;;;;;30.78;17.98;93594.59;5078676;28;20229;-72
2022/07/18 06:48:38;;;;;;;5.70;5.30;;;;;;;32.91;16.69;93603.03;5080951;28;20207;-71
2022/07/18 06:51:05;;;;;;;6.00;5.70;;;;;;;31.44;17.32;93587.81;5080569;28;20285;-70
2022/07/18 06:53:32;;;;;;;5.80;5.55;;;;;;;28.40;19.73;93577.22;5082170;28;20185;-70
2022/07/18 06:55:57;;;;;;;6.43;6.13;;;;;;;26.57;22.01;93573.47;5077566;28;20228;-70
2022/07/18 06:58:23;;;;;;;6.72;6.35;;;;;;;25.47;24.95;93563.44;5078325;28;20248;-71
2022/07/18 07:00:49;;;;;;;7.10;6.70;;;;;;;24.86;24.28;93544.38;5077469;28;20236;-70
2022/07/18 07:03:14;;;;;;;6.78;6.38;;;;;;;23.48;28.11;93536.28;5078243;28;20221;-70
2022/07/18 07:05:40;;;;;;;7.32;6.82;;;;;;;23.57;28.14;93563.59;5081098;28;20224;-71
2022/07/18 07:08:05;;;;;;;7.10;6.60;;;;;;;23.33;27.81;93555.63;5060842;28;20184;-70
2022/07/18 07:10:30;;;;;;;6.25;6.03;;;;;;;23.06;26.67;93558.94;5079983;28;20219;-70
2022/07/18 07:12:56;;;;;;;6.47;6.18;;;;;;;22.62;27.54;93560.53;5079405;28;20245;-70
2022/07/18 07:15:23;;;;;;;6.90;6.55;;;;;;;22.79;29.15;93555.00;5079867;28;20667;-70
2022/07/18 07:17:49;;;;;;;7.03;6.50;;;;;;;22.36;26.44;93552.00;5080429;28;20228;-70
2022/07/18 07:20:17;;;;;;;6.65;6.25;;;;;;;22.72;27.24;93552.13;5058014;28;20185;-70
2022/07/18 07:22:48;;;;;;;6.43;6.13;;;;;;;22.33;24.22;93555.31;5080372;28;20247;-70
2022/07/18 07:25:15;;;;;;;6.85;6.55;;;;;;;22.64;27.34;93555.66;5080981;28;20244;-71
2022/07/18 07:27:41;;;;;;;6.80;6.47;;;;;;;23.27;26.22;93556.97;5081409;28;20293;-70
2022/07/18 07:30:07;;;;;;;6.47;6.18;;;;;;;22.81;25.83;93549.34;5063263;28;20172;-70
2022/07/18 07:32:41;;;;;;;6.80;6.50;;;;;;;22.58;26.87;93554.31;5080905;28;20232;-70
2022/07/18 07:35:12;;;;;;;6.75;6.45;;;;;;;23.12;26.61;93554.94;5079462;28;20182;-69
2022/07/18 07:37:43;;;;;;;7.32;6.95;;;;;;;22.82;25.82;93557.00;5063466;28;20215;-70
2022/07/18 07:40:10;;;;;;;6.90;6.60;;;;;;;22.85;26.35;93563.56;5076862;28;20192;-71
2022/07/18 07:42:36;;;;;;;6.93;6.50;;;;;;;22.99;27.38;93564.78;5080756;28;20302;-70
2022/07/18 07:45:02;;;;;;;7.72;7.43;;;;;;;22.84;27.82;93562.78;5080541;28;20210;-71
2022/07/18 07:47:31;;;;;;;7.85;7.45;;;;;;;22.89;26.24;93567.91;5079451;28;20224;-71
2022/07/18 07:49:56;;;;;;;7.40;7.00;;;;;;;22.53;26.80;93557.19;5076631;28;20193;-71
2022/07/18 07:52:23;;;;;;;6.95;6.65;;;;;;;22.47;26.37;93553.13;5079780;28;20232;-70
2022/07/18 07:54:49;;;;;;;7.55;6.85;;;;;;;22.43;28.46;93562.09;5078372;28;20179;-71
2022/07/18 07:57:15;;;;;;;7.82;7.30;;;;;;;22.72;28.59;93567.31;5079819;28;20215;-70
2022/07/18 07:59:40;;;;;;;7.78;7.13;;;;;;;23.11;28.69;93559.50;5076240;28;20251;-70
2022/07/18 08:02:06;;;;;;;7.97;7.55;;;;;;;22.59;29.10;93553.19;5080038;28;20950;-71
2022/07/18 08:04:31;;;;;;;7.30;6.70;;;;;;;22.47;27.39;93565.66;5081244;28;20190;-70
2022/07/18 08:06:56;;;;;;;7.72;7.25;;;;;;;22.89;28.85;93567.13;5080379;28;20285;-70
2022/07/18 08:09:22;;;;;;;7.55;7.15;;;;;;;22.69;29.29;93565.31;5061483;28;20199;-71
2022/07/18 08:11:48;;;;;;;7.50;7.00;;;;;;;22.83;28.17;93571.91;5077163;28;20230;-70
2022/07/18 08:14:13;;;;;;;7.60;7.05;;;;;;;23.03;28.47;93576.34;5080771;28;20194;-70
2022/07/18 08:16:39;;;;;;;7.07;6.50;;;;;;;22.76;28.87;93568.97;5080051;28;20229;-70
2022/07/18 08:19:04;;;;;;;6.80;6.43;;;;;;;22.93;29.72;93571.44;5081148;28;20191;-70
2022/07/18 08:21:30;;;;;;;6.50;6.15;;;;;;;23.16;27.72;93569.91;5080231;28;20222;-71
2022/07/18 08:23:55;;;;;;;6.78;6.47;;;;;;;23.17;27.02;93576.81;5078654;28;20176;-71
2022/07/18 08:26:20;;;;;;;7.03;6.63;;;;;;;22.93;28.13;93574.13;5076317;28;20228;-70
2022/07/18 08:28:47;;;;;;;7.55;7.15;;;;;;;23.10;26.62;93568.59;5077743;28;20196;-71
2022/07/18 08:31:12;;;;;;;8.20;7.70;;;;;;;22.94;28.24;93577.56;5075813;28;20233;-71
2022/07/18 08:33:38;;;;;;;7.32;6.78;;;;;;;22.89;28.69;93575.91;5077502;28;20210;-70
2022/07/18 08:36:03;;;;;;;7.90;7.40;;;;;;;23.09;28.81;93564.38;5078542;28;20226;-70
2022/07/18 08:38:29;;;;;;;7.35;6.85;;;;;;;23.46;29.17;93568.63;5078851;28;20181;-71
2022/07/18 08:40:54;;;;;;;7.57;6.88;;;;;;;23.47;27.97;93580.06;5078692;28;21353;-70
2022/07/18 08:43:20;;;;;;;7.07;6.55;;;;;;;23.29;27.13;93574.19;5079250;28;20197;-69
2022/07/18 08:45:46;;;;;;;8.15;6.68;;;;;;;23.31;28.63;93577.28;5077549;28;20241;-70
2022/07/18 08:48:16;;;;;;;7.70;7.28;;;;;;;23.35;26.83;93578.19;5078524;28;20195;-70
2022/07/18 08:50:44;;;;;;;7.28;6.88;;;;;;;22.42;28.42;93576.50;5076058;28;20215;-72
2022/07/18 08:53:11;;;;;;;8.15;7.32;;;;;;;22.17;29.02;93572.97;5076347;28;20189;-70
2022/07/18 08:55:36;;;;;;;7.93;7.53;;;;;;;22.39;28.24;93564.63;5077091;28;20249;-71
2022/07/18 08:58:02;;;;;;;7.35;7.05;;;;;;;22.77;27.88;93573.19;5079915;28;20191;-71
2022/07/18 09:00:29;;;;;;;6.47;6.28;;;;;;;23.02;27.10;93564.13;5078942;28;20199;-71
2022/07/18 09:03:02;;;;;;;6.68;6.30;;;;;;;23.20;27.62;93560.16;5076698;28;20234;-70
2022/07/18 09:05:30;;;;;;;6.68;6.38;;;;;;;23.35;27.62;93570.19;5077663;28;20281;-71
2022/07/18 09:08:19;;;;;;;7.75;7.15;;;;;;;23.74;28.13;93574.03;5077997;28;20254;-70
2022/07/18 09:10:54;;;;;;;7.25;6.75;;;;;;;23.63;28.81;93567.59;5076934;28;20231;-70
2022/07/18 09:13:25;;;;;;;7.35;6.93;;;;;;;23.33;27.59;93553.72;5079619;28;20191;-70
2022/07/18 09:16:05;;;;;;;7.05;6.65;;;;;;;23.73;27.05;93570.59;5077130;28;20256;-70
2022/07/18 09:18:41;;;;;;;7.45;7.05;;;;;;;23.65;26.56;93566.16;5078427;28;20191;-71
2022/07/18 09:21:13;;;;;;;7.75;7.32;;;;;;;23.63;25.62;93576.38;5079384;28;20252;-70
2022/07/18 09:23:41;;;;;;;7.18;6.75;;;;;;;23.17;27.03;93576.81;5079014;28;20201;-71
2022/07/18 09:26:08;;;;;;;7.45;6.85;;;;;;;23.13;27.75;93561.84;5079111;28;20232;-71
2022/07/18 09:28:59;;;;;;;7.80;7.07;;;;;;;23.59;28.31;93572.84;5084344;28;20211;-70
2022/07/18 09:31:25;;;;;;;7.50;7.00;;;;;;;23.88;27.91;93573.69;5079298;28;20294;-70
2022/07/18 09:33:54;;;;;;;7.47;7.05;;;;;;;23.81;27.40;93579.59;5082307;28;20187;-69
2022/07/18 09:36:20;;;;;;;6.80;6.40;;;;;;;23.82;26.65;93575.00;5080759;28;20226;-71
2022/07/18 09:38:45;;;;;;;7.93;7.13;;;;;;;23.57;26.39;93584.94;5082525;28;20189;-68
2022/07/18 09:41:11;;;;;;;7.13;6.65;;;;;;;23.37;27.42;93567.97;5080213;28;20230;-71
2022/07/18 09:43:38;;;;;;;7.18;6.82;;;;;;;23.45;27.44;93582.28;5083693;28;20192;-70
2022/07/18 09:46:04;;;;;;;7.03;6.63;;;;;;;23.41;28.11;93568.84;5064072;28;20288;-70
2022/07/18 09:48:30;;;;;;;7.97;6.53;;;;;;;23.34;27.97;93570.50;5083778;28;20179;-70
2022/07/18 09:51:01;;;;;;;25.17;12.88;;;;;;;23.44;29.19;93570.84;5082002;28;20232;-72
2022/07/18 09:53:40;;;;;;;7.45;6.95;;;;;;;23.35;30.16;93566.72;5082787;28;20187;-70
2022/07/18 09:56:07;;;;;;;7.53;6.93;;;;;;;23.86;29.25;93568.66;5081293;28;20229;-70
2022/07/18 09:58:35;;;;;;;6.72;6.43;;;;;;;23.99;29.41;93564.88;5080794;28;20275;-71
2022/07/18 10:01:03;;;;;;;9.05;8.48;;;;;;;24.06;30.02;93569.66;5078331;28;20224;-70
2022/07/18 10:03:28;;;;;;;7.20;6.70;;;;;;;23.92;29.74;93561.22;5081665;28;20260;-71
2022/07/18 10:05:56;;;;;;;7.40;7.00;;;;;;;23.42;30.44;93529.63;5081385;28;20231;-70
2022/07/18 10:08:24;;;;;;;9.70;7.22;;;;;;;23.90;30.92;93560.75;5082150;28;20191;-71
2022/07/18 10:10:52;;;;;;;8.45;7.85;;;;;;;23.86;31.02;93566.00;5080861;28;20223;-70
2022/07/18 10:13:20;;;;;;;7.45;6.95;;;;;;;23.77;31.48;93560.81;5083040;28;20187;-69
2022/07/18 10:15:47;;;;;;;7.15;6.85;;;;;;;23.53;30.65;93558.16;5082280;28;20211;-70
2022/07/18 10:18:15;;;;;;;7.15;6.60;;;;;;;23.89;30.53;93540.56;5083306;28;20187;-70
2022/07/18 10:20:57;;;;;;;7.70;7.20;;;;;;;24.22;31.54;93547.25;5079609;28;20195;-70
2022/07/18 10:23:30;;;;;;;7.53;7.13;;;;;;;23.86;30.63;93541.97;5080778;28;20231;-71
2022/07/18 10:26:13;;;;;;;7.47;6.85;;;;;;;23.77;30.76;93540.59;5081367;28;20223;-70
2022/07/18 10:28:54;;;;;;;7.60;7.10;;;;;;;24.23;29.89;93545.34;5063167;28;20187;-70
2022/07/18 10:31:21;;;;;;;7.20;6.80;;;;;;;24.17;29.22;93538.72;5082376;28;20239;-70
2022/07/18 10:33:48;;;;;;;8.60;8.00;;;;;;;24.20;30.49;93532.69;5082865;28;21134;-70
2022/07/18 10:36:20;;;;;;;8.10;7.60;;;;;;;24.22;29.65;93535.81;5079858;28;20230;-71
2022/07/18 10:39:07;;;;;;;7.43;7.03;;;;;;;23.99;29.77;93534.75;5062684;28;20191;-70
2022/07/18 10:41:53;;;;;;;7.47;7.07;;;;;;;24.27;29.13;93528.31;5081095;28;20226;-70
2022/07/18 10:44:25;;;;;;;7.50;6.93;;;;;;;24.31;29.46;93529.19;5063957;28;20284;-70
2022/07/18 10:47:02;;;;;;;8.02;7.22;;;;;;;24.39;30.81;93532.84;5082983;28;20261;-70
2022/07/18 10:49:48;;;;;;;8.15;7.65;;;;;;;24.13;29.87;93527.13;5063563;28;20182;-70
2022/07/18 10:52:26;;;;;;;8.10;7.50;;;;;;;24.01;29.63;93525.31;5079827;28;20282;-72
2022/07/18 10:55:01;;;;;;;9.27;8.68;;;;;;;24.12;30.34;93526.38;5061244;28;20190;-70
2022/07/18 10:57:28;;;;;;;7.50;7.00;;;;;;;24.08;30.48;93519.41;5081444;28;20229;-70
2022/07/18 11:00:22;;;;;;;7.80;7.40;;;;;;;24.54;29.67;93521.41;5060550;28;20187;-69
2022/07/18 11:03:13;;;;;;;8.05;7.38;;;;;;;24.07;31.95;93528.50;5075952;28;20236;-70
2022/07/18 11:05:50;;;;;;;6.63;6.25;;;;;;;24.39;30.49;93514.16;5078808;28;20216;-70
2022/07/18 11:08:18;;;;;;;7.55;7.15;;;;;;;24.35;30.21;93500.69;5077584;28;20192;-70
2022/07/18 11:16:08;;;;;;;7.25;6.95;;;;;;;24.61;28.46;93510.88;5079605;28;20227;-70
2022/07/18 11:18:40;;;;;;;7.25;6.82;;;;;;;24.42;29.50;93508.13;5061256;28;20197;-70
2022/07/18 11:21:25;;;;;;;7.43;7.03;;;;;;;24.49;29.69;93498.41;5079490;28;20243;-70
2022/07/18 11:24:11;;;;;;;7.95;7.20;;;;;;;24.57;29.58;93512.69;5080771;28;20190;-70
2022/07/18 11:26:43;;;;;;;7.82;7.35;;;;;;;24.39;30.85;93508.81;5075576;28;20261;-70
2022/07/18 11:29:11;;;;;;;8.38;7.85;;;;;;;24.52;30.53;93492.38;5078795;28;20195;-70
2022/07/18 11:31:56;;;;;;;7.53;7.03;;;;;;;24.95;29.33;93504.94;5077323;28;20233;-70
2022/07/18 11:34:23;;;;;;;8.25;7.72;;;;;;;24.88;29.42;93504.75;5078734;28;20188;-71
2022/07/18 11:36:48;;;;;;;8.65;7.75;;;;;;;;;;5078225;28;20251;-69
2022/07/18 11:39:27;;;;;;;7.15;6.85;;;;;;;24.98;30.24;93505.00;5082275;28;20191;-70
2022/07/18 11:41:52;;;;;;;7.38;7.05;;;;;;;24.74;28.38;93493.72;5076817;28;20317;-69
2022/07/18 11:44:26;;;;;;;7.50;7.00;;;;;;;24.78;29.11;93505.28;5080983;28;20189;-71